Huvudsida
METAR-TAF:

METAR-TAF

Flygplatser :

Atoka Municipal Airport

Atoka, Oklahoma, USA

latitud: 34-23-54N, longitud: 096-08-53W, höjd: 180 m

Aktuellt väderrapport

Denna rapport gjordes för 22 minuter sedan, klockan 20:55 UTC
Vind 13 kt från sydväst i byarna ända upp till 18 kt
Temperatur 24°C
Fuktighet 41%
Tryck 1002 hPa
Sikt: 4.0 km
Klar himmel
torrdis

METAR: KAQR 212055Z AUTO 23013G18KT 2 1/2SM HZ CLR 24/10 A2960 RMK AO2 LTG DSNT SE

Tid: 17:17 (21:17 UTC)


TAF: saknas

Aktuella väderrapporter och prognoser från 4000 flygplatser (METAR- och TAF-rapporter).

De tillgängliga stationerna syns som gula och röda prickar på kartan.

För musen över prickarna för att se namnen på stationerna.

Klicka sedan för att få väderrapporter och prognoser.

För att ändra kartan: Klicka på de gröna knapparna med ett svart kors på för att zooma in; den gröna knappen med ett streck på för att zooma ut; eller på de gröna pilarna för angränsande kartor.


METAR-TAF: